Cheikh El Mokrani — C6WD5 — position and weather

sailwx.info

Track history (hours):
 
Tides and Currents Weather Stations Pressure Air Temp Water Temp Dewpoint Dewpoint Depression Visibility Wind Speed Wind Dir Waves Ship Positions

Cheikh El Mokrani

Last reported at 2017-May-27 00:30 UTC. Time now 2017-May-27 00:32 UTC.
Position N 37°46' E 004°12'.

Length 220 m; draft 9.9 m.

Type: Ship (hazmat cat D). MMSI: 309979000.

Date/timePositionNaut miles runAvg speedWind from/ knotsBaromVisibWave heightAir tempDewpointWater temp
2017-May-27 00:30N 37°46' E 004°12'815.3
2017-May-27 00:00N 37°44' E 004°22'815.2
2017-May-26 23:30N 37°42' E 004°31'1015.0
2017-May-26 22:52N 37°39' E 004°43'514.8
2017-May-26 22:30N 37°38' E 004°49'714.8
2017-May-26 22:00N 37°36' E 004°58'814.9
2017-May-26 21:30N 37°33' E 005°07'815.0
2017-May-26 21:00N 37°31' E 005°16'3415.4
2017-May-26 18:48N 37°21' E 005°57'5115.2
2017-May-26 15:28N 37°01' E 006°55'510.7
2017-May-26 15:00N 36°56' E 006°57'5 0.2
2017-May-25 12:29N 37°01' E 006°55'3 6.0
2017-May-25 11:58N 37°04' E 006°55'2 1.7
2017-May-25 11:03N 37°05' E 006°57'1 1.5
2017-May-25 10:38N 37°05' E 006°58'0 1.1
2017-May-25 10:26N 37°05' E 006°58'0 0.2
2017-May-25 09:54N 37°05' E 006°58'3 2.3
2017-May-25 08:21N 37°03' E 006°55'0 1.2
2017-May-25 07:58N 37°03' E 006°55'1 1.1
2017-May-25 07:23N 37°03' E 006°56'1 1.0
2017-May-25 06:52N 37°03' E 006°57'0 0.7
2017-May-25 06:26N 37°03' E 006°57'0 0.7
2017-May-25 05:56N 37°03' E 006°58'1 0.6
2017-May-25 05:01N 37°04' E 006°58'0 1.2
2017-May-25 04:59N 37°04' E 006°58'8 4.0
2017-May-25 03:00N 37°10' E 006°51'1 1.8
2017-May-25 02:30N 37°11' E 006°52'1 2.0
2017-May-25 01:53N 37°10' E 006°53'0 0.2
2017-May-25 01:10N 37°11' E 006°53'0 0.2
2017-May-25 00:50N 37°11' E 006°53'0 0.2
2017-May-25 00:25N 37°10' E 006°53'0 0.3
2017-May-24 23:59N 37°10' E 006°54'0 0.4
2017-May-24 23:30N 37°10' E 006°54'0 0.8
2017-May-24 23:00N 37°10' E 006°54'1 2.3
2017-May-24 22:24N 37°08' E 006°54'3 6.9
2017-May-24 21:57N 37°06' E 006°51'3 7.2
2017-May-24 21:28N 37°03' E 006°51'4 8.9
2017-May-24 20:59N 37°01' E 006°56'2 3.5
2017-May-24 20:29N 37°02' E 006°58'2 1.2
2017-May-24 19:09N 37°02' E 006°59'1 3.2
2017-May-24 18:59N 37°02' E 006°60'1 2.1
2017-May-24 18:18N 37°01' E 006°58'1 1.4
2017-May-24 17:50N 37°01' E 006°59'0 1.0
2017-May-24 17:29N 37°02' E 006°59'2 1.9
2017-May-24 16:37N 37°02' E 006°57'1 3.9
2017-May-24 16:29N 37°02' E 006°56'1 1.5
2017-May-24 15:55N 37°03' E 006°57'1 1.5
2017-May-24 15:14N 37°04' E 006°58'0 1.2
2017-May-24 14:50N 37°04' E 006°58'2 1.5
2017-May-24 13:49N 37°02' E 006°58'1 1.5
2017-May-24 13:08N 37°03' E 006°59'0 1.1
2017-May-24 12:59N 37°03' E 006°59'1 1.1
2017-May-24 12:25N 37°03' E 006°58'2 0.1
2017-May-23 21:33N 37°05' E 006°59'0 0.4
2017-May-23 21:30N 37°05' E 006°59'4 0.5
2017-May-23 13:33N 37°07' E 006°55'0 1.1
2017-May-23 13:19N 37°07' E 006°55'0 1.1
2017-May-23 12:59N 37°07' E 006°55'1 2.1
2017-May-23 12:30N 37°08' E 006°55'5 8.5
2017-May-23 11:57N 37°11' E 007°00'6313.0
2017-May-23 07:08N 37°15' E 008°19'213.0
2017-May-23 06:59N 37°15' E 008°21'912.8
2017-May-23 06:18N 37°16' E 008°32'412.7
2017-May-23 05:59N 37°17' E 008°37'1012.8
2017-May-23 05:12N 37°20' E 008°49'512.8
2017-May-23 04:50N 37°21' E 008°55'612.7
2017-May-23 04:24N 37°23' E 009°01'812.9
2017-May-23 03:47N 37°25' E 009°11'912.7
2017-May-23 03:04N 37°28' E 009°22'212.5
2017-May-23 02:55N 37°29' E 009°24'712.5
2017-May-23 02:22N 37°31' E 009°32'512.2
2017-May-23 02:00N 37°32' E 009°38'2012.1
2017-May-23 00:22N 37°39' E 010°01'412.3
2017-May-23 00:00N 37°39' E 010°07'612.4
2017-May-22 23:30N 37°39' E 010°15'612.4
2017-May-22 23:00N 37°38' E 010°22'612.5
2017-May-22 22:30N 37°36' E 010°30'1412.3
2017-May-22 21:23N 37°33' E 010°47'1812.5
2017-May-22 19:55N 37°28' E 011°09'512.8
2017-May-22 19:30N 37°25' E 011°15'1313.0
2017-May-22 18:29N 37°19' E 011°30'612.8
2017-May-22 18:00N 37°16' E 011°36'612.8
2017-May-22 17:30N 37°13' E 011°43'612.8
2017-May-22 17:00N 37°10' E 011°50'612.7
2017-May-22 16:30N 37°07' E 011°57'612.3
2017-May-22 16:00N 37°03' E 012°04'612.3
2017-May-22 15:30N 37°00' E 012°10'612.4
2017-May-22 15:01N 36°57' E 012°17'1212.1
2017-May-22 14:01N 36°52' E 012°30'611.9
2017-May-22 13:30N 36°51' E 012°38'611.9
2017-May-22 13:00N 36°48' E 012°45'611.7
2017-May-22 12:30N 36°47' E 012°52'612.0
2017-May-22 12:00N 36°46' E 012°59'612.0
2017-May-22 11:30N 36°44' E 013°07'612.0
2017-May-22 11:01N 36°43' E 013°14'612.1
2017-May-22 10:30N 36°42' E 013°21'612.3
2017-May-22 10:00N 36°41' E 013°29'612.1
2017-May-22 09:30N 36°40' E 013°36'611.9
2017-May-22 09:00N 36°38' E 013°43'611.8
2017-May-22 08:31N 36°36' E 013°50'611.9
2017-May-22 08:01N 36°35' E 013°57'612.1
2017-May-22 07:30N 36°33' E 014°05'612.0
2017-May-22 07:00N 36°31' E 014°12'611.8
2017-May-22 06:30N 36°30' E 014°19'611.7
2017-May-22 06:01N 36°29' E 014°26'611.6
2017-May-22 05:30N 36°27' E 014°33'611.4
2017-May-22 05:01N 36°26' E 014°40'611.6
2017-May-22 04:30N 36°25' E 014°47'611.8
2017-May-22 04:00N 36°23' E 014°54'611.7
2017-May-22 03:30N 36°22' E 015°01'611.8
2017-May-22 03:00N 36°21' E 015°09'611.8
2017-May-22 02:30N 36°20' E 015°16'39911.4
2017-May-20 15:31N 36°43' E 023°31'014.2
2017-May-20 15:30N 36°44' E 023°31'713.8
2017-May-20 15:00N 36°50' E 023°33'714.0
2017-May-20 14:30N 36°57' E 023°36'1514.0
2017-May-20 13:25N 37°11' E 023°42'614.3
2017-May-20 13:01N 37°17' E 023°44'714.4
2017-May-20 12:30N 37°24' E 023°47'713.4
2017-May-20 12:00N 37°30' E 023°47'713.8
2017-May-20 11:30N 37°37' E 023°44'713.9
2017-May-20 11:00N 37°43' E 023°40'713.4
2017-May-20 10:30N 37°49' E 023°36'713.4
2017-May-20 10:00N 37°51' E 023°27'611.6
2017-May-20 09:30N 37°54' E 023°21'4 8.2
2017-May-20 09:00N 37°57' E 023°24'0 0.3
2017-May-20 08:30N 37°58' E 023°24'0 0.0
2017-May-20 08:00N 37°58' E 023°24'0 0.0
2017-May-20 07:30N 37°58' E 023°24'0 0.0
2017-May-20 07:00N 37°58' E 023°24'0 0.0
2017-May-20 06:30N 37°58' E 023°24'0 0.0
2017-May-20 06:00N 37°58' E 023°24'0 0.0
2017-May-20 05:30N 37°58' E 023°24'0 0.0
2017-May-20 05:00N 37°58' E 023°24'0 0.0
2017-May-20 04:30N 37°58' E 023°24'0 0.0
2017-May-20 04:00N 37°58' E 023°24'0 0.0
2017-May-20 03:30N 37°58' E 023°24'0 0.0
2017-May-20 03:00N 37°58' E 023°24'0 0.0
2017-May-20 02:30N 37°58' E 023°24'0 0.0
2017-May-20 02:00N 37°58' E 023°24'0 0.0
2017-May-20 01:30N 37°58' E 023°24'0 0.0
2017-May-20 01:00N 37°58' E 023°24'0 0.0
2017-May-20 00:30N 37°58' E 023°24'0 0.0
2017-May-20 00:00N 37°58' E 023°24'0 0.0
2017-May-19 23:30N 37°58' E 023°24'0 0.0
2017-May-19 23:00N 37°58' E 023°24'0 0.0
2017-May-19 22:30N 37°58' E 023°24'0 0.0
2017-May-19 22:00N 37°58' E 023°24'0 0.0
2017-May-19 21:30N 37°58' E 023°24'0 0.0
2017-May-19 21:00N 37°58' E 023°24'0 0.0
2017-May-19 20:30N 37°58' E 023°24'0 0.0
2017-May-19 20:00N 37°58' E 023°24'0 0.0
2017-May-19 19:30N 37°58' E 023°24'0 0.0
2017-May-19 19:00N 37°58' E 023°24'0 0.0
2017-May-19 18:30N 37°58' E 023°24'0 0.0
2017-May-19 18:00N 37°58' E 023°24'0 0.0
2017-May-19 17:30N 37°58' E 023°24'0 0.0
2017-May-19 17:00N 37°58' E 023°24'0 0.0
2017-May-19 16:30N 37°58' E 023°24'0 0.0
2017-May-19 16:00N 37°58' E 023°24'0 0.0
2017-May-19 15:30N 37°58' E 023°24'0 0.0
2017-May-19 15:00N 37°58' E 023°24'0 0.0
2017-May-19 14:00N 37°58' E 023°24'0 0.0
2017-May-19 13:30N 37°58' E 023°24'0 0.0
2017-May-19 13:00N 37°58' E 023°24'0 0.0
2017-May-19 12:30N 37°58' E 023°24'0 0.0
2017-May-19 12:00N 37°58' E 023°24'0 0.0
2017-May-19 11:30N 37°58' E 023°24'0 0.0
2017-May-19 11:00N 37°58' E 023°24'0 0.0
2017-May-19 10:30N 37°58' E 023°24'0 0.0
2017-May-19 10:01N 37°58' E 023°24'0 0.0
2017-May-19 09:30N 37°58' E 023°24'1 1.1
2017-May-19 09:01N 37°57' E 023°24'1 2.6
2017-May-19 08:31N 37°56' E 023°23'2 3.3
2017-May-19 08:00N 37°56' E 023°21'1 1.3
2017-May-19 07:30N 37°56' E 023°21'0 0.5
2017-May-19 07:01N 37°56' E 023°21'2 4.7
2017-May-19 06:30N 37°54' E 023°21'3 6.8
2017-May-19 06:00N 37°52' E 023°24'510.2
2017-May-19 05:30N 37°50' E 023°30'611.0
2017-May-19 05:00N 37°50' E 023°37'5 9.9
2017-May-19 04:30N 37°47' E 023°41'611.3
2017-May-19 04:00N 37°42' E 023°44'611.1
2017-May-19 03:30N 37°36' E 023°46'510.7
2017-May-19 03:00N 37°31' E 023°47'425 8.7
2017-May-17 02:04N 36°21' E 015°03'411.8
2017-May-17 01:44N 36°22' E 014°59'312.1
2017-May-17 01:29N 36°23' E 014°55'611.8
2017-May-17 01:00N 36°24' E 014°48'  
Track history (hours):
 
Tides and Currents Weather Stations Pressure Air Temp Water Temp Dewpoint Dewpoint Depression Visibility Wind Speed Wind Dir Waves Ship Positions

Cheikh El Mokrani

Last reported at 2017-May-27 00:30 UTC. Time now 2017-May-27 00:32 UTC.
Position N 37°46' E 004°12'.

Length 220 m; draft 9.9 m.

Type: Ship (hazmat cat D). MMSI: 309979000.

Date/timePositionNaut miles runAvg speedWind from/ knotsBaromVisibWave heightAir tempDewpointWater temp
2017-May-27 00:30N 37°46' E 004°12'815.3
2017-May-27 00:00N 37°44' E 004°22'815.2
2017-May-26 23:30N 37°42' E 004°31'1015.0
2017-May-26 22:52N 37°39' E 004°43'514.8
2017-May-26 22:30N 37°38' E 004°49'714.8
2017-May-26 22:00N 37°36' E 004°58'814.9
2017-May-26 21:30N 37°33' E 005°07'815.0
2017-May-26 21:00N 37°31' E 005°16'3415.4
2017-May-26 18:48N 37°21' E 005°57'5115.2
2017-May-26 15:28N 37°01' E 006°55'510.7
2017-May-26 15:00N 36°56' E 006°57'5 0.2
2017-May-25 12:29N 37°01' E 006°55'3 6.0
2017-May-25 11:58N 37°04' E 006°55'2 1.7
2017-May-25 11:03N 37°05' E 006°57'1 1.5
2017-May-25 10:38N 37°05' E 006°58'0 1.1
2017-May-25 10:26N 37°05' E 006°58'0 0.2
2017-May-25 09:54N 37°05' E 006°58'3 2.3
2017-May-25 08:21N 37°03' E 006°55'0 1.2
2017-May-25 07:58N 37°03' E 006°55'1 1.1
2017-May-25 07:23N 37°03' E 006°56'1 1.0
2017-May-25 06:52N 37°03' E 006°57'0 0.7
2017-May-25 06:26N 37°03' E 006°57'0 0.7
2017-May-25 05:56N 37°03' E 006°58'1 0.6
2017-May-25 05:01N 37°04' E 006°58'0 1.2
2017-May-25 04:59N 37°04' E 006°58'8 4.0
2017-May-25 03:00N 37°10' E 006°51'1 1.8
2017-May-25 02:30N 37°11' E 006°52'1 2.0
2017-May-25 01:53N 37°10' E 006°53'0 0.2
2017-May-25 01:10N 37°11' E 006°53'0 0.2
2017-May-25 00:50N 37°11' E 006°53'0 0.2
2017-May-25 00:25N 37°10' E 006°53'0 0.3
2017-May-24 23:59N 37°10' E 006°54'0 0.4
2017-May-24 23:30N 37°10' E 006°54'0 0.8
2017-May-24 23:00N 37°10' E 006°54'1 2.3
2017-May-24 22:24N 37°08' E 006°54'3 6.9
2017-May-24 21:57N 37°06' E 006°51'3 7.2
2017-May-24 21:28N 37°03' E 006°51'4 8.9
2017-May-24 20:59N 37°01' E 006°56'2 3.5
2017-May-24 20:29N 37°02' E 006°58'2 1.2
2017-May-24 19:09N 37°02' E 006°59'1 3.2
2017-May-24 18:59N 37°02' E 006°60'1 2.1
2017-May-24 18:18N 37°01' E 006°58'1 1.4
2017-May-24 17:50N 37°01' E 006°59'0 1.0
2017-May-24 17:29N 37°02' E 006°59'2 1.9
2017-May-24 16:37N 37°02' E 006°57'1 3.9
2017-May-24 16:29N 37°02' E 006°56'1 1.5
2017-May-24 15:55N 37°03' E 006°57'1 1.5
2017-May-24 15:14N 37°04' E 006°58'0 1.2
2017-May-24 14:50N 37°04' E 006°58'2 1.5
2017-May-24 13:49N 37°02' E 006°58'1 1.5
2017-May-24 13:08N 37°03' E 006°59'0 1.1
2017-May-24 12:59N 37°03' E 006°59'1 1.1
2017-May-24 12:25N 37°03' E 006°58'2 0.1
2017-May-23 21:33N 37°05' E 006°59'0 0.4
2017-May-23 21:30N 37°05' E 006°59'4 0.5
2017-May-23 13:33N 37°07' E 006°55'0 1.1
2017-May-23 13:19N 37°07' E 006°55'0 1.1
2017-May-23 12:59N 37°07' E 006°55'1 2.1
2017-May-23 12:30N 37°08' E 006°55'5 8.5
2017-May-23 11:57N 37°11' E 007°00'6313.0
2017-May-23 07:08N 37°15' E 008°19'213.0
2017-May-23 06:59N 37°15' E 008°21'912.8
2017-May-23 06:18N 37°16' E 008°32'412.7
2017-May-23 05:59N 37°17' E 008°37'1012.8
2017-May-23 05:12N 37°20' E 008°49'512.8
2017-May-23 04:50N 37°21' E 008°55'612.7
2017-May-23 04:24N 37°23' E 009°01'812.9
2017-May-23 03:47N 37°25' E 009°11'912.7
2017-May-23 03:04N 37°28' E 009°22'212.5
2017-May-23 02:55N 37°29' E 009°24'712.5
2017-May-23 02:22N 37°31' E 009°32'512.2
2017-May-23 02:00N 37°32' E 009°38'2012.1
2017-May-23 00:22N 37°39' E 010°01'412.3
2017-May-23 00:00N 37°39' E 010°07'612.4
2017-May-22 23:30N 37°39' E 010°15'612.4
2017-May-22 23:00N 37°38' E 010°22'612.5
2017-May-22 22:30N 37°36' E 010°30'1412.3
2017-May-22 21:23N 37°33' E 010°47'1812.5
2017-May-22 19:55N 37°28' E 011°09'512.8
2017-May-22 19:30N 37°25' E 011°15'1313.0
2017-May-22 18:29N 37°19' E 011°30'612.8
2017-May-22 18:00N 37°16' E 011°36'612.8
2017-May-22 17:30N 37°13' E 011°43'612.8
2017-May-22 17:00N 37°10' E 011°50'612.7
2017-May-22 16:30N 37°07' E 011°57'612.3
2017-May-22 16:00N 37°03' E 012°04'612.3
2017-May-22 15:30N 37°00' E 012°10'612.4
2017-May-22 15:01N 36°57' E 012°17'1212.1
2017-May-22 14:01N 36°52' E 012°30'611.9
2017-May-22 13:30N 36°51' E 012°38'611.9
2017-May-22 13:00N 36°48' E 012°45'611.7
2017-May-22 12:30N 36°47' E 012°52'612.0
2017-May-22 12:00N 36°46' E 012°59'612.0
2017-May-22 11:30N 36°44' E 013°07'612.0
2017-May-22 11:01N 36°43' E 013°14'612.1
2017-May-22 10:30N 36°42' E 013°21'612.3
2017-May-22 10:00N 36°41' E 013°29'612.1
2017-May-22 09:30N 36°40' E 013°36'611.9
2017-May-22 09:00N 36°38' E 013°43'611.8
2017-May-22 08:31N 36°36' E 013°50'611.9
2017-May-22 08:01N 36°35' E 013°57'612.1
2017-May-22 07:30N 36°33' E 014°05'612.0
2017-May-22 07:00N 36°31' E 014°12'611.8
2017-May-22 06:30N 36°30' E 014°19'611.7
2017-May-22 06:01N 36°29' E 014°26'611.6
2017-May-22 05:30N 36°27' E 014°33'611.4
2017-May-22 05:01N 36°26' E 014°40'611.6
2017-May-22 04:30N 36°25' E 014°47'611.8
2017-May-22 04:00N 36°23' E 014°54'611.7
2017-May-22 03:30N 36°22' E 015°01'611.8
2017-May-22 03:00N 36°21' E 015°09'611.8
2017-May-22 02:30N 36°20' E 015°16'39911.4
2017-May-20 15:31N 36°43' E 023°31'014.2
2017-May-20 15:30N 36°44' E 023°31'713.8
2017-May-20 15:00N 36°50' E 023°33'714.0
2017-May-20 14:30N 36°57' E 023°36'1514.0
2017-May-20 13:25N 37°11' E 023°42'614.3
2017-May-20 13:01N 37°17' E 023°44'714.4
2017-May-20 12:30N 37°24' E 023°47'713.4
2017-May-20 12:00N 37°30' E 023°47'713.8
2017-May-20 11:30N 37°37' E 023°44'713.9
2017-May-20 11:00N 37°43' E 023°40'713.4
2017-May-20 10:30N 37°49' E 023°36'713.4
2017-May-20 10:00N 37°51' E 023°27'611.6
2017-May-20 09:30N 37°54' E 023°21'4 8.2
2017-May-20 09:00N 37°57' E 023°24'0 0.3
2017-May-20 08:30N 37°58' E 023°24'0 0.0
2017-May-20 08:00N 37°58' E 023°24'0 0.0
2017-May-20 07:30N 37°58' E 023°24'0 0.0
2017-May-20 07:00N 37°58' E 023°24'0 0.0
2017-May-20 06:30N 37°58' E 023°24'0 0.0
2017-May-20 06:00N 37°58' E 023°24'0 0.0
2017-May-20 05:30N 37°58' E 023°24'0 0.0
2017-May-20 05:00N 37°58' E 023°24'0 0.0
2017-May-20 04:30N 37°58' E 023°24'0 0.0
2017-May-20 04:00N 37°58' E 023°24'0 0.0
2017-May-20 03:30N 37°58' E 023°24'0 0.0
2017-May-20 03:00N 37°58' E 023°24'0 0.0
2017-May-20 02:30N 37°58' E 023°24'0 0.0
2017-May-20 02:00N 37°58' E 023°24'0 0.0
2017-May-20 01:30N 37°58' E 023°24'0 0.0
2017-May-20 01:00N 37°58' E 023°24'0 0.0
2017-May-20 00:30N 37°58' E 023°24'0 0.0
2017-May-20 00:00N 37°58' E 023°24'0 0.0
2017-May-19 23:30N 37°58' E 023°24'0 0.0
2017-May-19 23:00N 37°58' E 023°24'0 0.0
2017-May-19 22:30N 37°58' E 023°24'0 0.0
2017-May-19 22:00N 37°58' E 023°24'0 0.0
2017-May-19 21:30N 37°58' E 023°24'0 0.0
2017-May-19 21:00N 37°58' E 023°24'0 0.0
2017-May-19 20:30N 37°58' E 023°24'0 0.0
2017-May-19 20:00N 37°58' E 023°24'0 0.0
2017-May-19 19:30N 37°58' E 023°24'0 0.0
2017-May-19 19:00N 37°58' E 023°24'0 0.0
2017-May-19 18:30N 37°58' E 023°24'0 0.0
2017-May-19 18:00N 37°58' E 023°24'0 0.0
2017-May-19 17:30N 37°58' E 023°24'0 0.0
2017-May-19 17:00N 37°58' E 023°24'0 0.0
2017-May-19 16:30N 37°58' E 023°24'0 0.0
2017-May-19 16:00N 37°58' E 023°24'0 0.0
2017-May-19 15:30N 37°58' E 023°24'0 0.0
2017-May-19 15:00N 37°58' E 023°24'0 0.0
2017-May-19 14:00N 37°58' E 023°24'0 0.0
2017-May-19 13:30N 37°58' E 023°24'0 0.0
2017-May-19 13:00N 37°58' E 023°24'0 0.0
2017-May-19 12:30N 37°58' E 023°24'0 0.0
2017-May-19 12:00N 37°58' E 023°24'0 0.0
2017-May-19 11:30N 37°58' E 023°24'0 0.0
2017-May-19 11:00N 37°58' E 023°24'0 0.0
2017-May-19 10:30N 37°58' E 023°24'0 0.0
2017-May-19 10:01N 37°58' E 023°24'0 0.0
2017-May-19 09:30N 37°58' E 023°24'1 1.1
2017-May-19 09:01N 37°57' E 023°24'1 2.6
2017-May-19 08:31N 37°56' E 023°23'2 3.3
2017-May-19 08:00N 37°56' E 023°21'1 1.3
2017-May-19 07:30N 37°56' E 023°21'0 0.5
2017-May-19 07:01N 37°56' E 023°21'2 4.7
2017-May-19 06:30N 37°54' E 023°21'3 6.8
2017-May-19 06:00N 37°52' E 023°24'510.2
2017-May-19 05:30N 37°50' E 023°30'611.0
2017-May-19 05:00N 37°50' E 023°37'5 9.9
2017-May-19 04:30N 37°47' E 023°41'611.3
2017-May-19 04:00N 37°42' E 023°44'611.1
2017-May-19 03:30N 37°36' E 023°46'510.7
2017-May-19 03:00N 37°31' E 023°47'425 8.7
2017-May-17 02:04N 36°21' E 015°03'411.8
2017-May-17 01:44N 36°22' E 014°59'312.1
2017-May-17 01:29N 36°23' E 014°55'611.8
2017-May-17 01:00N 36°24' E 014°48'  

Dump ship's entire track history